Time;durP1;ratioP1;P1;durP2;ratioP2;P2;SDS_P1;SDS_P2;PMS_P1;PMS_P2;Temp;Humidity;BMP_temperature;BMP_pressure;BME280_temperature;BME280_humidity;BME280_pressure;Samples;Min_cycle;Max_cycle;Signal;HPM_P1;HPM_P2
2023/02/27 00:02:15;;;;;;;9.02;2.35;;;2.30;69.80;;;;;;5003544;28;20126;-77
2023/02/27 00:04:41;;;;;;;9.15;3.03;;;2.20;70.00;;;;;;5000514;28;20068;-77
2023/02/27 00:07:07;;;;;;;7.40;2.30;;;2.30;70.10;;;;;;4999941;28;20463;-78
2023/02/27 00:09:33;;;;;;;7.38;2.30;;;2.20;70.20;;;;;;5006975;28;20375;-77
2023/02/27 00:11:59;;;;;;;9.15;2.92;;;2.20;70.20;;;;;;5003577;28;20027;-77
2023/02/27 00:14:24;;;;;;;9.88;2.50;;;2.20;70.30;;;;;;5005579;28;20117;-78
2023/02/27 00:16:50;;;;;;;6.65;2.50;;;2.10;70.50;;;;;;4998255;28;20045;-78
2023/02/27 00:19:16;;;;;;;7.78;2.83;;;2.10;70.70;;;;;;5000593;28;20030;-78
2023/02/27 00:21:43;;;;;;;8.88;2.78;;;2.10;70.80;;;;;;4996716;28;20057;-78
2023/02/27 00:24:09;;;;;;;10.13;3.08;;;2.10;70.80;;;;;;5003234;28;20069;-78
2023/02/27 00:26:36;;;;;;;10.43;3.83;;;2.10;71.00;;;;;;5005313;28;20439;-76
2023/02/27 00:29:02;;;;;;;6.70;2.60;;;2.00;71.20;;;;;;4997248;28;20406;-78
2023/02/27 00:31:28;;;;;;;8.23;2.88;;;2.00;71.10;;;;;;5005199;28;20030;-77
2023/02/27 00:33:54;;;;;;;11.13;3.60;;;2.00;71.00;;;;;;5001654;28;20030;-75
2023/02/27 00:36:20;;;;;;;9.63;2.72;;;2.00;71.00;;;;;;4998037;28;20051;-79
2023/02/27 00:38:45;;;;;;;10.10;3.03;;;2.00;70.90;;;;;;5003318;28;20379;-77
2023/02/27 00:41:11;;;;;;;8.13;3.20;;;2.00;71.00;;;;;;4996622;28;20061;-78
2023/02/27 00:43:37;;;;;;;10.40;3.33;;;2.00;71.10;;;;;;5000120;28;20106;-77
2023/02/27 00:46:02;;;;;;;8.18;2.63;;;1.90;71.10;;;;;;4998623;28;20105;-77
2023/02/27 00:48:28;;;;;;;8.13;2.58;;;1.90;70.90;;;;;;4994479;28;20111;-77
2023/02/27 00:50:54;;;;;;;7.65;3.33;;;1.90;70.90;;;;;;4999098;28;20431;-78
2023/02/27 00:53:19;;;;;;;8.20;2.85;;;1.90;71.00;;;;;;4997478;28;20463;-79
2023/02/27 00:55:45;;;;;;;8.93;3.33;;;1.80;71.10;;;;;;4998604;28;20482;-76
2023/02/27 00:58:11;;;;;;;8.70;2.33;;;1.80;71.00;;;;;;5001169;28;20102;-77
2023/02/27 01:00:36;;;;;;;8.68;2.85;;;1.80;70.80;;;;;;5002528;28;20029;-79
2023/02/27 01:03:02;;;;;;;8.38;3.13;;;1.90;70.70;;;;;;5001614;28;20053;-78
2023/02/27 01:05:28;;;;;;;10.90;3.22;;;1.80;70.80;;;;;;4994514;28;20041;-78
2023/02/27 01:07:54;;;;;;;7.55;2.60;;;1.90;70.40;;;;;;4994546;28;20029;-77
2023/02/27 01:10:19;;;;;;;10.23;3.17;;;1.90;70.50;;;;;;4998012;28;20030;-77
2023/02/27 01:12:45;;;;;;;9.48;2.70;;;1.80;70.60;;;;;;4999791;28;20049;-78
2023/02/27 01:15:11;;;;;;;6.50;2.50;;;1.80;70.50;;;;;;5000311;28;20089;-76
2023/02/27 01:17:37;;;;;;;7.00;2.80;;;1.80;70.50;;;;;;5002555;28;20065;-78
2023/02/27 01:20:04;;;;;;;8.45;2.50;;;1.80;70.40;;;;;;5003767;28;20156;-79
2023/02/27 01:22:29;;;;;;;7.20;2.70;;;1.80;70.20;;;;;;4998470;28;20037;-79
2023/02/27 01:24:55;;;;;;;9.60;2.70;;;1.80;70.10;;;;;;4997368;28;20038;-78
2023/02/27 01:27:20;;;;;;;10.75;2.90;;;1.80;70.10;;;;;;5000028;28;20061;-77
2023/02/27 01:29:46;;;;;;;7.55;2.38;;;1.80;70.30;;;;;;4996886;28;20515;-79
2023/02/27 01:32:12;;;;;;;8.27;2.55;;;1.70;70.50;;;;;;4999594;28;20038;-81
2023/02/27 01:34:37;;;;;;;7.20;2.25;;;1.70;70.60;;;;;;5004896;28;20080;-77
2023/02/27 01:37:03;;;;;;;9.13;2.47;;;1.70;70.70;;;;;;4999664;28;20359;-77
2023/02/27 01:39:29;;;;;;;8.95;2.50;;;1.60;70.90;;;;;;5003004;28;20030;-78
2023/02/27 01:41:54;;;;;;;9.13;4.03;;;1.60;71.10;;;;;;4998465;28;20045;-79
2023/02/27 01:44:20;;;;;;;8.82;2.80;;;1.60;71.10;;;;;;5000906;28;20141;-79
2023/02/27 01:46:46;;;;;;;7.45;2.85;;;1.60;71.30;;;;;;5001155;28;20546;-80
2023/02/27 01:49:22;;;;;;;6.25;3.03;;;1.60;71.40;;;;;;4995678;28;20102;-78
2023/02/27 01:51:53;;;;;;;7.55;2.22;;;1.50;71.40;;;;;;5000629;28;20487;-78
2023/02/27 01:54:21;;;;;;;11.40;3.60;;;1.50;71.40;;;;;;4999457;28;20062;-78
2023/02/27 01:56:48;;;;;;;7.40;2.50;;;1.50;71.40;;;;;;4999904;28;20057;-78
2023/02/27 01:59:15;;;;;;;12.45;3.85;;;1.50;71.40;;;;;;5000376;28;20028;-77
2023/02/27 02:01:41;;;;;;;7.68;2.67;;;1.50;71.50;;;;;;5003624;28;20458;-77
2023/02/27 02:04:28;;;;;;;7.80;2.75;;;1.40;71.40;;;;;;4998617;28;20054;-77
2023/02/27 02:07:04;;;;;;;5.70;2.60;;;1.40;71.60;;;;;;5001120;28;20037;-78
2023/02/27 02:09:34;;;;;;;9.52;3.30;;;1.40;71.70;;;;;;5002394;28;20118;-77
2023/02/27 02:12:00;;;;;;;11.20;2.90;;;1.30;71.70;;;;;;4998606;28;20178;-78
2023/02/27 02:14:26;;;;;;;8.57;2.92;;;1.30;71.80;;;;;;5005965;28;20029;-78
2023/02/27 02:17:06;;;;;;;6.82;2.75;;;1.30;71.90;;;;;;4999382;28;20034;-79
2023/02/27 02:19:38;;;;;;;6.72;3.00;;;1.20;72.00;;;;;;5002884;28;20377;-79
2023/02/27 02:22:49;;;;;;;8.73;3.17;;;1.20;72.10;;;;;;4997930;28;20042;-79
2023/02/27 02:25:36;;;;;;;8.68;3.08;;;1.20;72.20;;;;;;4995320;28;20034;-77
2023/02/27 02:28:14;;;;;;;10.32;2.92;;;1.10;72.40;;;;;;4996486;28;20046;-79
2023/02/27 02:30:51;;;;;;;7.93;3.03;;;1.10;72.40;;;;;;4993871;28;20109;-77
2023/02/27 02:33:32;;;;;;;10.02;3.60;;;1.10;72.50;;;;;;4998405;28;20434;-77
2023/02/27 02:36:35;;;;;;;8.25;3.13;;;1.10;72.60;;;;;;5000711;28;20049;-78
2023/02/27 02:39:24;;;;;;;6.63;2.65;;;1.10;72.70;;;;;;5006744;28;20030;-78
2023/02/27 02:41:50;;;;;;;8.57;3.08;;;1.10;72.70;;;;;;4996376;28;20038;-78
2023/02/27 02:44:33;;;;;;;10.20;4.35;;;1.00;72.60;;;;;;5000977;28;20038;-77
2023/02/27 02:47:36;;;;;;;10.60;3.08;;;1.10;72.70;;;;;;5004295;28;20042;-77
2023/02/27 02:50:27;;;;;;;8.10;3.03;;;1.00;72.60;;;;;;5005964;28;20501;-77
2023/02/27 02:53:10;;;;;;;6.90;2.80;;;1.00;72.70;;;;;;4992850;28;20517;-77
2023/02/27 02:56:13;;;;;;;9.60;3.00;;;1.00;72.70;;;;;;4999698;28;20061;-77
2023/02/27 02:58:45;;;;;;;7.50;2.90;;;1.00;72.90;;;;;;4995367;28;20553;-78
2023/02/27 03:01:23;;;;;;;9.90;2.90;;;0.90;72.90;;;;;;5003940;28;20044;-77
2023/02/27 03:03:55;;;;;;;7.68;3.35;;;0.90;73.10;;;;;;5001099;28;20057;-78
2023/02/27 03:06:29;;;;;;;10.45;3.85;;;0.80;73.30;;;;;;5003179;28;20042;-78
2023/02/27 03:09:02;;;;;;;8.95;3.50;;;0.80;73.80;;;;;;4984597;28;20237;-78
2023/02/27 03:11:33;;;;;;;7.57;3.88;;;0.70;73.90;;;;;;4987462;28;20030;-77
2023/02/27 03:14:21;;;;;;;9.00;3.97;;;0.60;74.20;;;;;;5000225;28;20040;-77
2023/02/27 03:16:52;;;;;;;11.05;3.80;;;0.60;74.60;;;;;;4989384;28;20432;-80
2023/02/27 03:19:26;;;;;;;9.20;3.58;;;0.50;75.00;;;;;;4980696;28;20041;-79
2023/02/27 03:22:13;;;;;;;12.52;4.30;;;0.40;75.70;;;;;;4993662;28;20030;-79
2023/02/27 03:24:48;;;;;;;8.48;3.13;;;0.40;76.20;;;;;;4993922;28;20049;-78
2023/02/27 03:27:15;;;;;;;;;;;0.30;76.60;;;;;;5004705;28;20088;-78
2023/02/27 03:29:48;;;;;;;8.82;3.83;;;0.30;77.00;;;;;;5002054;28;20008;-76
2023/02/27 03:32:21;;;;;;;9.93;3.38;;;0.20;77.30;;;;;;4999912;28;20077;-77
2023/02/27 03:34:47;;;;;;;10.00;3.72;;;0.20;77.40;;;;;;4998590;28;20888;-78
2023/02/27 03:37:28;;;;;;;8.07;3.80;;;0.10;77.90;;;;;;5001793;28;20053;-78
2023/02/27 03:40:05;;;;;;;8.85;3.38;;;0.10;78.10;;;;;;4998422;28;20088;-78
2023/02/27 03:42:41;;;;;;;9.70;3.53;;;0.10;78.10;;;;;;5000241;28;20033;-78
2023/02/27 03:45:23;;;;;;;10.60;3.97;;;0.10;78.60;;;;;;5002181;28;20200;-78
2023/02/27 03:47:49;;;;;;;12.05;3.78;;;0.10;78.60;;;;;;4994262;28;20152;-78
2023/02/27 03:50:16;;;;;;;7.35;3.30;;;0.10;78.70;;;;;;5001230;28;20049;-78
2023/02/27 03:52:42;;;;;;;10.90;3.85;;;0.00;79.00;;;;;;5001824;28;20038;-79
2023/02/27 03:55:10;;;;;;;9.98;3.97;;;0.00;79.00;;;;;;5002194;28;21109;-79
2023/02/27 03:57:37;;;;;;;16.80;3.70;;;0.00;79.10;;;;;;4996394;28;20092;-77
2023/02/27 04:00:04;;;;;;;9.20;3.65;;;0.00;79.30;;;;;;5003627;28;20177;-78
2023/02/27 04:02:31;;;;;;;10.02;3.40;;;0.00;79.20;;;;;;4998656;28;20522;-79
2023/02/27 04:04:57;;;;;;;12.45;3.83;;;0.00;79.20;;;;;;5000898;28;20026;-79
2023/02/27 04:07:46;;;;;;;10.20;3.78;;;0.00;79.20;;;;;;5000147;28;20116;-79
2023/02/27 04:10:18;;;;;;;10.27;3.97;;;0.00;79.10;;;;;;5014114;28;20051;-77
2023/02/27 04:13:24;;;;;;;10.65;4.75;;;0.00;79.10;;;;;;5001953;28;20524;-78
2023/02/27 04:16:10;;;;;;;9.93;3.92;;;0.00;79.20;;;;;;5000513;28;20068;-78
2023/02/27 04:18:54;;;;;;;10.10;4.40;;;0.00;79.20;;;;;;4995864;28;20077;-78
2023/02/27 04:21:41;;;;;;;10.52;3.95;;;0.00;79.50;;;;;;5004588;28;20030;-78
2023/02/27 04:24:16;;;;;;;13.45;4.85;;;0.00;79.40;;;;;;5006437;28;20105;-78
2023/02/27 04:26:48;;;;;;;15.85;6.05;;;0.00;79.40;;;;;;5003297;28;20402;-78
2023/02/27 04:29:35;;;;;;;10.20;5.03;;;0.00;79.50;;;;;;5007090;28;20025;-78
2023/02/27 04:32:04;;;;;;;9.57;3.55;;;0.00;79.70;;;;;;4996092;28;20137;-78
2023/02/27 04:34:41;;;;;;;11.43;3.88;;;0.00;80.00;;;;;;5004743;28;20023;-78
2023/02/27 04:37:32;;;;;;;6.18;3.00;;;0.00;79.80;;;;;;5000257;28;20189;-77
2023/02/27 04:40:15;;;;;;;9.23;3.60;;;0.00;79.60;;;;;;5001337;28;20040;-80
2023/02/27 04:42:46;;;;;;;10.35;4.18;;;-3276.70;79.80;;;;;;5000425;28;20159;-78
2023/02/27 04:45:17;;;;;;;9.32;3.45;;;-3276.70;80.10;;;;;;5003902;28;20084;-76
2023/02/27 04:47:50;;;;;;;7.85;3.30;;;-3276.60;80.20;;;;;;5002769;28;20040;-79
2023/02/27 04:50:25;;;;;;;9.45;3.58;;;-3276.60;80.50;;;;;;5002707;28;20270;-78
2023/02/27 04:53:02;;;;;;;11.05;3.80;;;-3276.60;80.50;;;;;;5000331;28;20035;-78
2023/02/27 04:55:43;;;;;;;10.68;3.58;;;-3276.50;80.70;;;;;;5001349;28;20506;-78
2023/02/27 04:58:14;;;;;;;9.45;3.42;;;-3276.60;80.90;;;;;;5001212;28;20395;-77
2023/02/27 05:00:45;;;;;;;9.85;4.13;;;-3276.60;81.00;;;;;;5002292;28;20119;-79
2023/02/27 05:03:21;;;;;;;8.02;3.80;;;-3276.60;80.90;;;;;;5004751;28;20038;-79
2023/02/27 05:05:49;;;;;;;8.60;3.58;;;-3276.60;81.00;;;;;;5005906;28;20042;-78
2023/02/27 05:08:25;;;;;;;8.35;3.40;;;-3276.50;81.10;;;;;;5002198;28;20056;-79
2023/02/27 05:11:04;;;;;;;9.50;3.38;;;-3276.60;81.00;;;;;;4994703;28;20030;-78
2023/02/27 05:13:40;;;;;;;10.85;3.40;;;-3276.60;80.90;;;;;;5006525;28;20092;-78
2023/02/27 05:16:21;;;;;;;10.63;3.90;;;-3276.60;81.10;;;;;;4998702;28;20065;-77
2023/02/27 05:18:47;;;;;;;7.97;3.92;;;-3276.60;80.90;;;;;;5000602;28;20095;-76
2023/02/27 05:21:18;;;;;;;8.48;3.97;;;-3276.60;80.80;;;;;;4996459;28;20065;-78
2023/02/27 05:23:53;;;;;;;11.70;4.47;;;-3276.60;80.80;;;;;;5002385;28;20454;-76
2023/02/27 05:26:37;;;;;;;16.30;6.40;;;-3276.50;81.00;;;;;;4997527;28;20061;-76
2023/02/27 05:29:31;;;;;;;13.10;5.53;;;-3276.50;81.10;;;;;;4997309;28;20026;-77
2023/02/27 05:32:13;;;;;;;14.57;6.53;;;-3276.50;81.10;;;;;;4994637;28;20156;-77
2023/02/27 05:35:02;;;;;;;11.02;4.07;;;-3276.50;81.20;;;;;;5007413;28;20026;-77
2023/02/27 05:37:41;;;;;;;10.07;4.80;;;-3276.50;81.40;;;;;;4998571;28;20565;-77
2023/02/27 05:40:09;;;;;;;10.80;5.47;;;-3276.40;81.40;;;;;;5014009;28;20058;-76
2023/02/27 05:42:40;;;;;;;12.27;4.68;;;-3276.40;81.60;;;;;;5004724;28;20470;-76
2023/02/27 05:45:17;;;;;;;11.00;4.63;;;-3276.40;81.60;;;;;;4998275;28;20387;-76
2023/02/27 05:47:49;;;;;;;12.55;4.40;;;-3276.40;81.50;;;;;;4998031;28;20042;-76
2023/02/27 05:50:20;;;;;;;10.70;4.38;;;-3276.40;81.40;;;;;;4998896;28;20025;-78
2023/02/27 05:52:47;;;;;;;9.93;3.72;;;-3276.40;81.40;;;;;;5001675;28;20034;-77
2023/02/27 05:55:18;;;;;;;8.02;4.25;;;-3276.30;81.50;;;;;;4998051;28;20039;-76
2023/02/27 05:57:56;;;;;;;10.57;4.40;;;-3276.30;81.50;;;;;;4998689;28;20084;-78
2023/02/27 06:00:43;;;;;;;10.50;4.38;;;-3276.30;81.60;;;;;;5001568;28;20033;-76
2023/02/27 06:03:09;;;;;;;10.52;4.80;;;-3276.30;81.80;;;;;;5003120;28;20072;-77
2023/02/27 06:05:37;;;;;;;9.55;4.50;;;-3276.30;81.80;;;;;;5002757;28;20292;-76
2023/02/27 06:08:02;;;;;;;9.63;4.47;;;-3276.30;81.90;;;;;;4997491;28;20030;-77
2023/02/27 06:10:28;;;;;;;10.57;4.53;;;-3276.20;82.00;;;;;;4998682;28;20030;-77
2023/02/27 06:12:54;;;;;;;14.25;5.43;;;-3276.20;82.10;;;;;;5001677;28;20034;-76
2023/02/27 06:15:20;;;;;;;8.55;4.88;;;-3276.20;82.20;;;;;;5004044;28;20383;-78
2023/02/27 06:17:45;;;;;;;11.23;5.38;;;-3276.20;82.20;;;;;;4999237;28;20044;-77
2023/02/27 06:20:11;;;;;;;13.75;5.60;;;-3276.20;82.30;;;;;;4996906;28;20525;-78
2023/02/27 06:22:37;;;;;;;9.23;4.57;;;-3276.20;82.30;;;;;;4998069;28;20132;-78
2023/02/27 06:25:03;;;;;;;10.88;4.72;;;-3276.10;82.40;;;;;;4997155;28;20033;-77
2023/02/27 06:27:28;;;;;;;11.85;4.72;;;-3276.20;82.60;;;;;;4995438;28;20069;-77
2023/02/27 06:29:54;;;;;;;11.60;4.38;;;-3276.20;82.50;;;;;;4999904;28;20465;-77
2023/02/27 06:32:20;;;;;;;9.10;4.70;;;-3276.30;82.50;;;;;;4998426;28;20338;-77
2023/02/27 06:34:46;;;;;;;9.88;5.35;;;-3276.20;82.50;;;;;;5001431;28;20093;-77
2023/02/27 06:37:12;;;;;;;11.98;6.47;;;-3276.20;82.50;;;;;;4998821;28;20042;-77
2023/02/27 06:39:37;;;;;;;13.00;5.20;;;-3276.20;82.50;;;;;;4998483;28;20034;-77
2023/02/27 06:42:03;;;;;;;12.25;5.47;;;-3276.20;82.50;;;;;;4996460;28;20029;-77
2023/02/27 06:44:29;;;;;;;12.55;5.28;;;-3276.20;82.60;;;;;;4996189;28;20022;-78
2023/02/27 06:46:54;;;;;;;16.27;6.25;;;-3276.20;82.70;;;;;;4996274;28;20038;-79
2023/02/27 06:49:21;;;;;;;16.90;6.68;;;-3276.20;82.80;;;;;;4996172;28;20134;-77
2023/02/27 06:51:46;;;;;;;13.70;7.93;;;-3276.20;83.00;;;;;;4996332;28;20026;-77
2023/02/27 06:54:12;;;;;;;15.25;7.70;;;-3276.20;82.80;;;;;;5001736;28;20029;-78
2023/02/27 06:56:38;;;;;;;12.57;6.43;;;-3276.30;82.80;;;;;;4995789;28;20049;-78
2023/02/27 06:59:04;;;;;;;10.95;6.32;;;-3276.30;82.80;;;;;;4995073;28;20030;-78
2023/02/27 07:01:30;;;;;;;18.00;6.35;;;-3276.30;82.70;;;;;;4993854;28;20033;-77
2023/02/27 07:03:55;;;;;;;14.10;6.85;;;-3276.30;82.60;;;;;;4998916;28;20030;-78
2023/02/27 07:06:21;;;;;;;15.10;6.70;;;-3276.40;82.60;;;;;;4992255;28;20406;-77
2023/02/27 07:08:47;;;;;;;13.82;6.63;;;-3276.40;82.40;;;;;;4998434;28;20351;-79
2023/02/27 07:11:13;;;;;;;13.15;5.93;;;-3276.40;82.40;;;;;;4994501;28;20643;-77
2023/02/27 07:13:38;;;;;;;11.40;5.32;;;-3276.40;82.40;;;;;;5001030;28;20104;-77
2023/02/27 07:16:05;;;;;;;11.48;5.35;;;-3276.40;82.50;;;;;;5001289;28;20483;-77
2023/02/27 07:18:30;;;;;;;13.00;6.30;;;-3276.50;82.40;;;;;;4994495;28;20027;-76
2023/02/27 07:20:56;;;;;;;14.65;6.32;;;-3276.50;82.30;;;;;;4999165;28;20083;-77
2023/02/27 07:23:22;;;;;;;10.88;5.68;;;-3276.50;82.30;;;;;;5000274;28;20367;-76
2023/02/27 07:25:48;;;;;;;12.63;5.68;;;-3276.60;82.20;;;;;;4998623;28;20483;-76
2023/02/27 07:28:14;;;;;;;11.63;5.80;;;-3276.70;82.00;;;;;;5000871;28;20521;-75
2023/02/27 07:30:40;;;;;;;10.60;5.55;;;-3276.60;82.00;;;;;;4995611;28;20026;-74
2023/02/27 07:33:06;;;;;;;13.05;6.53;;;-3276.70;81.90;;;;;;4993120;28;20026;-76
2023/02/27 07:35:32;;;;;;;11.60;6.13;;;0.00;81.70;;;;;;4994698;28;20045;-75
2023/02/27 07:37:58;;;;;;;15.02;7.28;;;0.00;81.50;;;;;;5001259;28;20021;-77
2023/02/27 07:40:23;;;;;;;13.35;6.55;;;0.00;81.50;;;;;;4993996;28;20109;-76
2023/02/27 07:42:49;;;;;;;14.18;7.65;;;0.00;81.40;;;;;;5001379;28;20030;-77
2023/02/27 07:45:17;;;;;;;15.98;8.02;;;0.10;81.40;;;;;;4994823;28;20077;-77
2023/02/27 07:47:43;;;;;;;12.98;6.53;;;0.10;81.40;;;;;;4991027;28;20047;-77
2023/02/27 07:50:12;;;;;;;12.05;6.75;;;0.20;81.20;;;;;;5003085;28;20520;-74
2023/02/27 07:52:40;;;;;;;13.00;6.45;;;0.30;81.00;;;;;;5000191;28;20117;-76
2023/02/27 07:55:06;;;;;;;12.35;6.28;;;0.30;80.70;;;;;;4999382;28;20570;-73
2023/02/27 07:57:32;;;;;;;15.88;7.68;;;0.40;80.50;;;;;;4997895;28;20050;-74
2023/02/27 07:59:58;;;;;;;14.15;6.93;;;0.50;80.30;;;;;;5005332;28;20026;-73
2023/02/27 08:02:24;;;;;;;14.55;6.80;;;0.60;79.90;;;;;;5004354;28;20482;-73
2023/02/27 08:04:51;;;;;;;13.15;7.55;;;0.70;79.70;;;;;;5000357;28;20022;-72
2023/02/27 08:07:17;;;;;;;16.00;8.40;;;0.70;79.30;;;;;;4997782;28;20121;-72
2023/02/27 08:09:43;;;;;;;16.13;8.82;;;0.90;79.10;;;;;;5000470;28;20530;-73
2023/02/27 08:12:09;;;;;;;15.32;8.52;;;0.90;78.70;;;;;;4998111;28;20042;-72
2023/02/27 08:14:34;;;;;;;14.98;8.27;;;1.00;78.50;;;;;;5001825;28;20037;-72
2023/02/27 08:17:00;;;;;;;22.92;9.85;;;1.10;78.30;;;;;;4999880;28;20042;-72
2023/02/27 08:19:26;;;;;;;14.93;7.90;;;1.20;77.80;;;;;;5004512;28;20026;-73
2023/02/27 08:21:51;;;;;;;15.23;9.23;;;1.40;77.20;;;;;;5003991;28;20044;-72
2023/02/27 08:24:17;;;;;;;16.80;8.18;;;1.50;76.60;;;;;;5003101;28;20021;-73
2023/02/27 08:26:43;;;;;;;17.67;8.77;;;1.70;76.10;;;;;;4997178;28;20533;-73
2023/02/27 08:29:08;;;;;;;14.15;7.40;;;1.80;75.80;;;;;;5001891;28;20034;-73
2023/02/27 08:31:34;;;;;;;13.77;8.00;;;1.90;74.50;;;;;;4999674;28;20096;-73
2023/02/27 08:34:00;;;;;;;15.30;7.10;;;2.00;74.60;;;;;;5003476;28;20017;-73
2023/02/27 08:36:25;;;;;;;15.35;6.70;;;2.10;74.10;;;;;;5003349;28;20072;-73
2023/02/27 08:38:51;;;;;;;16.08;7.45;;;2.20;73.40;;;;;;5000019;28;20040;-72
2023/02/27 08:41:16;;;;;;;15.52;7.30;;;2.30;72.70;;;;;;4994396;28;20057;-73
2023/02/27 08:43:42;;;;;;;12.45;7.13;;;2.40;72.40;;;;;;4992976;28;20558;-73
2023/02/27 08:46:08;;;;;;;12.30;7.20;;;2.40;72.10;;;;;;4996877;28;20536;-73
2023/02/27 08:48:33;;;;;;;14.85;7.45;;;2.50;71.90;;;;;;4998251;28;20687;-72
2023/02/27 08:50:59;;;;;;;13.55;8.57;;;2.70;71.70;;;;;;5009161;28;20057;-73
2023/02/27 08:53:25;;;;;;;13.25;7.90;;;3.00;71.20;;;;;;5002770;28;20462;-72
2023/02/27 08:55:52;;;;;;;12.60;6.18;;;3.20;70.40;;;;;;4999350;28;20060;-72
2023/02/27 08:58:18;;;;;;;14.68;6.50;;;3.20;69.40;;;;;;5006076;28;20026;-73
2023/02/27 09:00:44;;;;;;;10.50;5.80;;;3.40;68.50;;;;;;4998875;28;20375;-72
2023/02/27 09:03:10;;;;;;;13.98;5.85;;;3.50;67.90;;;;;;5005283;28;20038;-72
2023/02/27 09:05:36;;;;;;;10.52;5.90;;;3.50;66.80;;;;;;5001378;28;20030;-72
2023/02/27 09:08:03;;;;;;;13.90;5.97;;;3.50;67.10;;;;;;5005788;28;20026;-72
2023/02/27 09:10:31;;;;;;;11.40;6.20;;;3.70;67.00;;;;;;5000546;28;20022;-73
2023/02/27 09:12:58;;;;;;;8.55;4.68;;;3.90;65.90;;;;;;5004489;28;20112;-73
2023/02/27 09:15:24;;;;;;;11.68;4.95;;;3.90;65.10;;;;;;4999975;28;20029;-72
2023/02/27 09:17:50;;;;;;;13.50;4.63;;;3.90;64.70;;;;;;5003297;28;20088;-74
2023/02/27 09:20:16;;;;;;;8.77;5.10;;;4.10;64.50;;;;;;5003776;28;20026;-73
2023/02/27 09:22:42;;;;;;;12.75;4.90;;;4.10;64.60;;;;;;5000877;28;20057;-72
2023/02/27 09:25:08;;;;;;;11.95;5.10;;;4.20;64.20;;;;;;5006451;28;20101;-74
2023/02/27 09:27:35;;;;;;;10.07;4.82;;;4.50;63.60;;;;;;5005844;28;20026;-74
2023/02/27 09:30:00;;;;;;;9.45;4.75;;;4.60;63.00;;;;;;4999391;28;20026;-73
2023/02/27 09:32:27;;;;;;;8.98;5.38;;;4.60;62.20;;;;;;5001946;28;20284;-75
2023/02/27 09:34:52;;;;;;;7.85;3.95;;;4.40;62.00;;;;;;5004575;28;20026;-81
2023/02/27 09:37:18;;;;;;;7.40;3.92;;;4.40;61.80;;;;;;5005940;28;20053;-80
2023/02/27 09:39:45;;;;;;;10.98;4.63;;;4.40;61.70;;;;;;5005673;28;20526;-85
2023/02/27 09:42:22;;;;;;;12.00;4.82;;;4.70;61.30;;;;;;5011346;28;20038;-81
2023/02/27 09:45:01;;;;;;;7.57;3.72;;;4.80;60.70;;;;;;5007208;28;20023;-83
2023/02/27 09:47:36;;;;;;;11.50;4.20;;;4.80;59.60;;;;;;5003350;28;20556;-78
2023/02/27 09:50:02;;;;;;;9.40;4.15;;;4.60;59.50;;;;;;5012679;28;20030;-86
2023/02/27 09:52:30;;;;;;;9.88;4.05;;;4.60;60.40;;;;;;4998005;28;20038;-86
2023/02/27 09:54:56;;;;;;;10.25;3.50;;;4.70;59.80;;;;;;5001720;28;20042;-85
2023/02/27 09:58:03;;;;;;;9.35;3.88;;;5.00;59.20;;;;;;5002248;28;20135;-78
2023/02/27 10:00:48;;;;;;;7.55;3.45;;;5.20;59.70;;;;;;5001517;28;20442;-79
2023/02/27 10:03:38;;;;;;;9.73;3.67;;;5.40;57.80;;;;;;5001733;28;20443;-79
2023/02/27 10:06:24;;;;;;;8.95;4.65;;;5.60;57.80;;;;;;4996976;28;20058;-80
2023/02/27 10:09:07;;;;;;;9.95;4.10;;;5.40;57.70;;;;;;4997819;28;20057;-77
2023/02/27 10:12:15;;;;;;;9.60;4.88;;;5.30;58.20;;;;;;5002476;28;20030;-75
2023/02/27 10:15:04;;;;;;;8.90;4.07;;;5.60;57.50;;;;;;5002169;28;20033;-82
2023/02/27 10:17:37;;;;;;;8.00;4.03;;;5.70;57.30;;;;;;5002989;28;20068;-84
2023/02/27 10:20:16;;;;;;;11.02;3.40;;;5.50;56.70;;;;;;5003079;28;20028;-83
2023/02/27 10:22:45;;;;;;;8.13;3.92;;;5.30;57.60;;;;;;5002504;28;20053;-74
2023/02/27 10:25:18;;;;;;;10.18;3.55;;;5.50;56.50;;;;;;5004738;28;20033;-82
2023/02/27 10:27:48;;;;;;;8.57;3.53;;;5.60;57.10;;;;;;5006361;28;20032;-83
2023/02/27 10:30:24;;;;;;;6.55;3.03;;;5.60;55.00;;;;;;5005737;28;20026;-82
2023/02/27 10:33:16;;;;;;;10.30;2.95;;;5.70;56.30;;;;;;5023709;28;20101;-79
2023/02/27 10:35:44;;;;;;;8.48;3.00;;;6.10;55.70;;;;;;5006633;28;20034;-81
2023/02/27 10:38:18;;;;;;;7.07;3.10;;;6.20;54.40;;;;;;5001278;28;20045;-82
2023/02/27 10:40:45;;;;;;;6.70;3.35;;;6.10;55.00;;;;;;5013349;28;20398;-77
2023/02/27 10:43:15;;;;;;;9.30;3.42;;;6.10;55.50;;;;;;5003468;28;20505;-77
2023/02/27 10:45:42;;;;;;;7.85;2.97;;;5.90;54.60;;;;;;5000849;28;20053;-75
2023/02/27 10:48:09;;;;;;;8.45;3.47;;;5.80;54.80;;;;;;5003190;28;20104;-79
2023/02/27 10:50:38;;;;;;;10.13;3.45;;;5.60;54.90;;;;;;4994214;28;20033;-76
2023/02/27 10:53:15;;;;;;;9.30;3.50;;;5.80;55.00;;;;;;4993713;28;20088;-78
2023/02/27 10:55:46;;;;;;;7.80;3.28;;;5.70;54.60;;;;;;4999536;28;20057;-77
2023/02/27 10:58:18;;;;;;;7.13;3.33;;;5.80;55.80;;;;;;5001126;28;20030;-78
2023/02/27 11:00:56;;;;;;;8.60;3.35;;;5.50;55.20;;;;;;5002284;28;20479;-79
2023/02/27 11:03:32;;;;;;;9.15;3.05;;;5.80;55.10;;;;;;4996596;28;20026;-80
2023/02/27 11:06:24;;;;;;;7.35;3.13;;;6.10;55.60;;;;;;4998550;28;20034;-76
2023/02/27 11:09:16;;;;;;;7.57;3.15;;;6.40;54.00;;;;;;5003834;28;20096;-78
2023/02/27 11:11:42;;;;;;;7.43;3.08;;;6.60;54.00;;;;;;4998640;28;20057;-76
2023/02/27 11:14:31;;;;;;;8.02;2.80;;;6.80;52.20;;;;;;5003912;28;20466;-77
2023/02/27 11:17:01;;;;;;;7.82;3.20;;;6.70;52.10;;;;;;4997706;28;20050;-79
2023/02/27 11:19:37;;;;;;;7.35;2.85;;;6.80;51.80;;;;;;5000254;28;20089;-81
2023/02/27 11:22:05;;;;;;;5.10;2.70;;;6.40;50.10;;;;;;4993096;28;20034;-78
2023/02/27 11:24:31;;;;;;;6.88;3.42;;;6.10;51.80;;;;;;4997331;28;20038;-80
2023/02/27 11:27:05;;;;;;;9.77;3.33;;;6.20;51.70;;;;;;4992470;28;20137;-80
2023/02/27 11:29:33;;;;;;;7.57;3.33;;;6.20;51.80;;;;;;5002852;28;20022;-83
2023/02/27 11:32:12;;;;;;;7.60;3.45;;;6.40;52.50;;;;;;4995975;28;20803;-79
2023/02/27 11:34:46;;;;;;;8.60;3.40;;;6.20;52.20;;;;;;4996115;28;20043;-80
2023/02/27 11:37:28;;;;;;;6.78;3.35;;;6.00;53.80;;;;;;5006919;28;20526;-75
2023/02/27 11:40:12;;;;;;;6.03;2.92;;;6.20;53.50;;;;;;5009005;28;20406;-74
2023/02/27 11:43:03;;;;;;;9.57;4.07;;;6.50;52.90;;;;;;5001566;28;20486;-77
2023/02/27 11:45:32;;;;;;;7.15;3.70;;;6.40;52.30;;;;;;4996895;28;20040;-75
2023/02/27 11:48:15;;;;;;;7.35;2.92;;;6.80;51.70;;;;;;4997210;28;20038;-80
2023/02/27 11:50:59;;;;;;;8.57;3.97;;;6.90;52.40;;;;;;4995496;28;20034;-77
2023/02/27 11:53:47;;;;;;;8.68;3.83;;;6.90;49.20;;;;;;5001398;28;20022;-81
2023/02/27 11:56:25;;;;;;;7.43;2.88;;;6.20;50.60;;;;;;4999891;28;20065;-81
2023/02/27 11:59:18;;;;;;;8.70;4.30;;;6.40;50.10;;;;;;4997798;28;20467;-81
2023/02/27 12:01:49;;;;;;;8.68;3.50;;;6.60;51.40;;;;;;4997008;28;20038;-82
2023/02/27 12:04:19;;;;;;;7.47;3.35;;;6.60;50.20;;;;;;4999112;28;20046;-82
2023/02/27 12:07:11;;;;;;;11.20;4.00;;;6.40;49.80;;;;;;4996282;28;20069;-80
2023/02/27 12:09:48;;;;;;;11.75;3.45;;;6.30;50.70;;;;;;4999367;28;20065;-81
2023/02/27 12:12:25;;;;;;;8.57;3.35;;;6.30;49.70;;;;;;4996399;28;20116;-81
2023/02/27 12:15:04;;;;;;;7.57;3.88;;;6.40;50.20;;;;;;4995662;28;20040;-81
2023/02/27 12:17:46;;;;;;;7.70;3.47;;;6.30;50.10;;;;;;4998844;28;20104;-81
2023/02/27 12:20:41;;;;;;;6.18;3.00;;;6.60;50.20;;;;;;5002089;28;20030;-79
2023/02/27 12:23:24;;;;;;;8.98;3.28;;;7.10;49.40;;;;;;5007270;28;20030;-80
2023/02/27 12:25:57;;;;;;;7.78;3.25;;;6.90;48.30;;;;;;5001559;28;20087;-80
2023/02/27 12:28:32;;;;;;;7.45;4.28;;;6.90;48.40;;;;;;5003584;28;20531;-79
2023/02/27 12:31:39;;;;;;;6.10;3.10;;;7.10;48.10;;;;;;4993133;28;20046;-79
2023/02/27 12:34:14;;;;;;;8.40;3.20;;;7.10;47.60;;;;;;5003387;28;20038;-81
2023/02/27 12:36:40;;;;;;;5.25;2.95;;;6.80;47.60;;;;;;5001259;28;20043;-78
2023/02/27 12:39:17;;;;;;;7.82;3.35;;;6.70;48.00;;;;;;4998722;28;20509;-80
2023/02/27 12:42:20;;;;;;;7.32;3.40;;;6.60;49.50;;;;;;5010014;28;20053;-78
2023/02/27 12:45:07;;;;;;;5.82;2.95;;;6.70;50.20;;;;;;4994008;28;20014;-79
2023/02/27 12:48:07;;;;;;;6.53;2.80;;;6.90;49.00;;;;;;4997611;28;20072;-77
2023/02/27 12:50:48;;;;;;;6.15;2.72;;;7.10;47.10;;;;;;4991968;28;20030;-74
2023/02/27 12:53:33;;;;;;;7.22;2.90;;;6.90;46.70;;;;;;4995227;28;20050;-79
2023/02/27 12:56:13;;;;;;;5.20;2.90;;;6.70;47.30;;;;;;4994109;28;20082;-79
2023/02/27 12:59:08;;;;;;;6.32;2.85;;;6.90;47.90;;;;;;5001796;28;20046;-82
2023/02/27 13:02:07;;;;;;;6.82;2.65;;;7.20;47.80;;;;;;4998024;28;20039;-74
2023/02/27 13:04:52;;;;;;;7.28;3.10;;;6.90;46.90;;;;;;4997357;28;20025;-75
2023/02/27 13:07:32;;;;;;;5.53;2.50;;;6.80;47.10;;;;;;5003451;28;20045;-75
2023/02/27 13:10:02;;;;;;;4.80;2.55;;;6.80;46.50;;;;;;4996487;28;20034;-75
2023/02/27 13:12:55;;;;;;;6.88;3.20;;;7.10;48.00;;;;;;5001837;28;20555;-81